createdAt,value
2018-05-02T00:01:03.207Z,78.27
2018-05-02T00:03:31.435Z,77.58
2018-05-02T00:05:59.683Z,77.27
2018-05-02T00:08:27.908Z,77.88
2018-05-02T00:10:56.163Z,78.63
2018-05-02T00:13:24.411Z,79.30
2018-05-02T00:15:53.414Z,79.17
2018-05-02T00:18:22.402Z,77.71
2018-05-02T00:20:50.642Z,78.13
2018-05-02T00:23:18.878Z,78.41
2018-05-02T00:25:47.119Z,78.69
2018-05-02T00:28:15.350Z,79.27
2018-05-02T00:30:43.596Z,79.89
2018-05-02T00:33:11.828Z,80.96
2018-05-02T00:35:40.071Z,81.52
2018-05-02T00:38:09.671Z,81.53
2018-05-02T00:40:38.688Z,81.38
2018-05-02T00:43:06.909Z,82.21
2018-05-02T00:45:35.145Z,82.56
2018-05-02T00:48:04.147Z,82.34
2018-05-02T00:50:32.388Z,82.16
2018-05-02T00:53:00.611Z,81.43
2018-05-02T00:55:28.855Z,80.91
2018-05-02T00:57:57.131Z,80.87
2018-05-02T01:00:26.132Z,81.07
2018-05-02T01:02:54.355Z,81.86
2018-05-02T01:05:22.595Z,81.33
2018-05-02T01:07:51.596Z,81.40
2018-05-02T01:10:20.607Z,81.19
2018-05-02T01:12:49.604Z,81.26
2018-05-02T01:15:18.612Z,79.82
2018-05-02T01:17:47.600Z,79.12
2018-05-02T01:20:15.823Z,79.12
2018-05-02T01:22:44.827Z,80.07
2018-05-02T01:25:13.818Z,80.98
2018-05-02T01:27:42.826Z,79.93
2018-05-02T01:30:11.813Z,79.80
2018-05-02T01:32:40.094Z,80.47
2018-05-02T01:35:08.318Z,80.31
2018-05-02T01:37:37.331Z,80.54
2018-05-02T01:40:06.319Z,80.38
2018-05-02T01:42:35.330Z,79.39
2018-05-02T01:45:04.319Z,78.79
2018-05-02T01:47:33.326Z,77.65
2018-05-02T01:50:01.567Z,77.65
2018-05-02T01:52:29.799Z,78.00
2018-05-02T01:54:58.134Z,78.11
2018-05-02T01:57:26.370Z,78.33
2018-05-02T01:59:54.599Z,78.21
2018-05-02T02:02:23.611Z,79.41
2018-05-02T02:04:51.831Z,79.02
2018-05-02T02:07:20.079Z,77.96
2018-05-02T02:09:49.076Z,77.15
2018-05-02T02:12:18.069Z,77.78
2018-05-02T02:14:46.294Z,77.31
2018-05-02T02:17:14.528Z,76.69
2018-05-02T02:19:42.753Z,77.07
2018-05-02T02:22:10.994Z,76.20
2018-05-02T02:24:39.224Z,76.47
2018-05-02T02:27:08.230Z,76.92
2018-05-02T02:29:37.219Z,75.95
2018-05-02T02:32:05.549Z,76.77
2018-05-02T02:34:33.771Z,77.30
2018-05-02T02:37:02.017Z,78.47
2018-05-02T02:39:30.243Z,79.02
2018-05-02T02:41:58.543Z,78.53
2018-05-02T02:44:26.771Z,79.59
2018-05-02T02:46:55.826Z,79.03
2018-05-02T02:49:24.067Z,77.44
2018-05-02T02:51:53.176Z,78.30
2018-05-02T02:54:22.287Z,79.36
2018-05-02T02:56:51.293Z,76.70
2018-05-02T02:59:20.291Z,77.40
2018-05-02T03:01:49.408Z,77.14
2018-05-02T03:04:18.819Z,76.09
2018-05-02T03:06:47.831Z,76.66
2018-05-02T03:09:16.847Z,77.94
2018-05-02T03:11:45.134Z,79.02
2018-05-02T03:14:14.141Z,79.68
2018-05-02T03:16:43.148Z,78.10
2018-05-02T03:19:11.400Z,77.78
2018-05-02T03:21:39.879Z,78.54
2018-05-02T03:24:08.103Z,78.65
2018-05-02T03:26:37.410Z,77.53
2018-05-02T03:29:06.527Z,77.18
2018-05-02T03:31:35.522Z,76.79
2018-05-02T03:34:04.533Z,77.00
2018-05-02T03:36:33.543Z,75.25
2018-05-02T03:39:02.551Z,75.39
2018-05-02T03:41:31.535Z,75.17
2018-05-02T03:43:59.796Z,75.27
2018-05-02T03:46:28.855Z,76.24
2018-05-02T03:48:57.875Z,76.82
2018-05-02T03:51:26.112Z,76.19
2018-05-02T03:53:54.348Z,76.38
2018-05-02T03:56:23.343Z,76.94
2018-05-02T03:58:52.355Z,76.24
2018-05-02T04:01:39.008Z,76.82
2018-05-02T04:04:25.163Z,75.52
2018-05-02T04:07:15.819Z,75.67
2018-05-02T04:09:44.070Z,75.10
2018-05-02T04:12:13.115Z,75.03
2018-05-02T04:14:41.387Z,75.40
2018-05-02T04:17:10.403Z,74.85
2018-05-02T04:19:38.650Z,75.17
2018-05-02T04:22:07.683Z,74.79
2018-05-02T04:24:36.701Z,74.58
2018-05-02T04:27:05.702Z,73.70
2018-05-02T04:29:34.698Z,74.77
2018-05-02T04:32:03.687Z,74.01
2018-05-02T04:34:31.944Z,75.39
2018-05-02T04:37:00.187Z,74.61
2018-05-02T04:39:29.196Z,73.89
2018-05-02T04:41:58.200Z,73.02
2018-05-02T04:44:27.202Z,73.11
2018-05-02T04:46:56.263Z,73.56
2018-05-02T04:49:24.603Z,73.70
2018-05-02T04:51:53.590Z,74.09
2018-05-02T04:54:21.838Z,73.49
2018-05-02T04:56:50.146Z,73.30
2018-05-02T04:59:19.113Z,71.02
2018-05-02T05:01:47.375Z,72.30
2018-05-02T05:04:16.390Z,71.25
2018-05-02T05:06:45.399Z,71.55
2018-05-02T05:09:13.705Z,69.52
2018-05-02T05:11:41.939Z,69.86
2018-05-02T05:14:10.266Z,70.06
2018-05-02T05:16:39.903Z,69.81
2018-05-02T05:19:08.172Z,75.01
2018-05-02T05:21:37.174Z,69.25
2018-05-02T05:24:06.166Z,69.62
2018-05-02T05:26:34.415Z,69.05
2018-05-02T05:29:02.633Z,70.82
2018-05-02T05:31:31.673Z,71.30
2018-05-02T05:34:00.667Z,72.47
2018-05-02T05:36:29.677Z,72.08
2018-05-02T05:38:57.899Z,71.42
2018-05-02T05:41:26.150Z,72.36
2018-05-02T05:43:55.147Z,72.59
2018-05-02T05:46:23.496Z,71.11
2018-05-02T05:48:51.942Z,71.89
2018-05-02T05:51:20.959Z,71.47
2018-05-02T05:53:50.067Z,72.55
2018-05-02T05:56:19.163Z,72.88
2018-05-02T05:58:48.175Z,72.59
2018-05-02T06:01:17.195Z,72.76
2018-05-02T06:03:46.290Z,71.42
2018-05-02T06:06:15.312Z,72.03
2018-05-02T06:08:44.299Z,70.43
2018-05-02T06:11:13.303Z,69.30
2018-05-02T06:13:41.566Z,68.97
2018-05-02T06:16:09.808Z,69.70
2018-05-02T06:18:38.075Z,70.19
2018-05-02T06:21:07.094Z,69.07
2018-05-02T06:23:36.227Z,66.44
2018-05-02T06:26:04.484Z,66.53
2018-05-02T06:28:33.493Z,67.61
2018-05-02T06:31:02.591Z,65.48
2018-05-02T06:33:31.762Z,65.25
2018-05-02T06:35:59.964Z,65.70
2018-05-02T06:38:28.207Z,65.70
2018-05-02T06:40:56.439Z,66.13
2018-05-02T06:43:24.761Z,65.57
2018-05-02T06:45:52.953Z,65.64
2018-05-02T06:48:21.959Z,65.47
2018-05-02T06:50:50.967Z,64.78
2018-05-02T06:53:20.066Z,65.67
2018-05-02T06:55:49.062Z,65.34
2018-05-02T06:58:17.315Z,66.03
2018-05-02T07:00:45.640Z,66.51
2018-05-02T07:03:13.842Z,65.59
2018-05-02T07:05:42.847Z,62.42
2018-05-02T07:08:11.911Z,63.28
2018-05-02T07:10:40.180Z,63.12
2018-05-02T07:13:08.432Z,63.23
2018-05-02T07:15:37.447Z,63.45
2018-05-02T07:18:06.470Z,64.62
2018-05-02T07:20:34.712Z,62.88
2018-05-02T07:23:02.957Z,62.88
2018-05-02T07:25:31.201Z,61.70
2018-05-02T07:28:00.945Z,62.77
2018-05-02T07:30:30.712Z,61.00
2018-05-02T07:32:59.105Z,59.97
2018-05-02T07:35:28.055Z,60.59
2018-05-02T07:37:57.063Z,61.56
2018-05-02T07:40:26.205Z,62.52
2018-05-02T07:42:54.454Z,62.98
2018-05-02T07:45:23.471Z,62.13
2018-05-02T07:47:52.524Z,62.75
2018-05-02T07:50:21.500Z,62.23
2018-05-02T07:52:50.508Z,61.94
2018-05-02T07:55:18.776Z,61.97
2018-05-02T07:57:47.779Z,61.94
2018-05-02T08:00:17.568Z,59.05
2018-05-02T08:02:45.887Z,60.56
2018-05-02T08:05:15.522Z,60.20
2018-05-02T08:07:44.534Z,59.61
2018-05-02T08:10:13.553Z,58.98
2018-05-02T08:12:41.811Z,59.18
2018-05-02T08:15:10.927Z,58.52
2018-05-02T08:17:39.931Z,56.81
2018-05-02T08:20:09.043Z,56.74
2018-05-02T08:22:38.229Z,57.98
2018-05-02T08:25:07.172Z,56.83
2018-05-02T08:27:35.472Z,57.29
2018-05-02T08:30:03.731Z,56.13
2018-05-02T08:32:32.729Z,55.94
2018-05-02T08:35:01.048Z,55.16
2018-05-02T08:37:30.036Z,54.66
2018-05-02T08:39:59.122Z,54.61
2018-05-02T08:42:27.367Z,54.45
2018-05-02T08:44:55.624Z,53.54
2018-05-02T08:47:24.650Z,53.02
2018-05-02T08:49:53.749Z,54.36
2018-05-02T08:52:22.744Z,54.45
2018-05-02T08:54:51.767Z,54.40
2018-05-02T08:57:20.031Z,54.04
2018-05-02T08:59:48.332Z,54.58
2018-05-02T09:02:17.351Z,55.11
2018-05-02T09:04:45.582Z,54.75
2018-05-02T09:07:13.929Z,53.27
2018-05-02T09:09:42.215Z,51.47
2018-05-02T09:12:10.492Z,52.87
2018-05-02T09:14:39.507Z,51.53
2018-05-02T09:17:08.609Z,51.17
2018-05-02T09:19:37.715Z,51.02
2018-05-02T09:22:06.746Z,52.70
2018-05-02T09:24:35.828Z,50.33
2018-05-02T09:27:04.847Z,49.43
2018-05-02T09:29:33.083Z,51.66
2018-05-02T09:32:01.345Z,49.58
2018-05-02T09:34:29.611Z,49.80
2018-05-02T09:36:58.618Z,48.35
2018-05-02T09:39:27.791Z,48.28
2018-05-02T09:41:56.635Z,48.43
2018-05-02T09:44:24.870Z,46.98
2018-05-02T09:46:53.195Z,46.66
2018-05-02T09:49:22.296Z,48.24
2018-05-02T09:51:50.545Z,49.57
2018-05-02T09:54:18.790Z,48.75
2018-05-02T09:56:47.812Z,48.20
2018-05-02T09:59:16.094Z,45.88
2018-05-02T10:01:45.187Z,46.97
2018-05-02T10:04:14.192Z,45.86
2018-05-02T10:06:42.447Z,44.25
2018-05-02T10:09:11.451Z,46.47
2018-05-02T10:11:39.716Z,45.73
2018-05-02T10:14:08.000Z,45.56
2018-05-02T10:16:36.245Z,45.12
2018-05-02T10:19:04.545Z,44.42
2018-05-02T10:21:33.572Z,44.25
2018-05-02T10:24:01.811Z,43.56
2018-05-02T10:26:30.052Z,45.08
2018-05-02T10:28:58.327Z,44.96
2018-05-02T10:31:27.354Z,46.28
2018-05-02T10:33:55.604Z,44.22
2018-05-02T10:36:23.903Z,44.50
2018-05-02T10:38:52.919Z,42.25
2018-05-02T10:41:21.916Z,42.96
2018-05-02T10:43:50.948Z,43.88
2018-05-02T10:46:19.187Z,44.32
2018-05-02T10:48:47.431Z,43.18
2018-05-02T10:51:15.683Z,43.70
2018-05-02T10:53:44.712Z,45.20
2018-05-02T10:56:12.966Z,43.94
2018-05-02T10:58:42.755Z,44.21
2018-05-02T11:01:11.016Z,44.14
2018-05-02T11:03:39.296Z,43.56
2018-05-02T11:06:08.704Z,43.05
2018-05-02T11:08:37.715Z,43.16
2018-05-02T11:11:06.717Z,40.53
2018-05-02T11:13:35.845Z,41.64
2018-05-02T11:16:04.087Z,41.15
2018-05-02T11:18:32.339Z,41.87
2018-05-02T11:21:00.576Z,39.74
2018-05-02T11:23:28.827Z,43.49
2018-05-02T11:25:57.080Z,41.01
2018-05-02T11:28:26.122Z,40.91
2018-05-02T11:30:54.368Z,39.23
2018-05-02T11:33:23.399Z,39.54
2018-05-02T11:35:51.685Z,38.21
2018-05-02T11:38:19.916Z,37.64
2018-05-02T11:40:48.243Z,37.87
2018-05-02T11:43:17.653Z,38.79
2018-05-02T11:45:46.679Z,38.34
2018-05-02T11:48:15.037Z,40.47
2018-05-02T11:50:44.147Z,40.13
2018-05-02T11:53:12.475Z,39.71
2018-05-02T11:55:40.796Z,36.92
2018-05-02T11:58:09.139Z,36.99
2018-05-02T12:00:38.159Z,36.37
2018-05-02T12:03:06.407Z,38.03
2018-05-02T12:05:34.659Z,36.27
2018-05-02T12:08:02.908Z,37.98
2018-05-02T12:10:32.066Z,37.96
2018-05-02T12:13:00.262Z,37.75
2018-05-02T12:15:28.538Z,37.18
2018-05-02T12:17:56.775Z,36.40
2018-05-02T12:20:25.800Z,38.21
2018-05-02T12:22:54.051Z,37.17
2018-05-02T12:25:22.306Z,37.37
2018-05-02T12:27:50.613Z,37.50
2018-05-02T12:30:18.865Z,38.53
2018-05-02T12:32:47.119Z,38.07
2018-05-02T12:35:16.139Z,40.02
2018-05-02T12:37:45.242Z,38.50
2018-05-02T12:40:15.019Z,39.17
2018-05-02T12:42:43.322Z,37.52
2018-05-02T12:45:11.601Z,34.84
2018-05-02T12:47:39.956Z,36.14
2018-05-02T12:50:08.312Z,36.88
2018-05-02T12:52:36.639Z,37.27
2018-05-02T12:55:04.902Z,36.55
2018-05-02T12:57:33.908Z,35.70
2018-05-02T13:00:02.224Z,37.87
2018-05-02T13:02:30.468Z,36.85
2018-05-02T13:04:59.521Z,36.11
2018-05-02T13:07:27.763Z,34.91
2018-05-02T13:09:56.024Z,35.26
2018-05-02T13:12:24.260Z,35.60
2018-05-02T13:14:53.276Z,36.04
2018-05-02T13:17:22.400Z,36.61
2018-05-02T13:19:50.647Z,35.33
2018-05-02T13:22:18.897Z,37.89
2018-05-02T13:24:47.171Z,36.72
2018-05-02T13:27:15.418Z,36.80
2018-05-02T13:29:44.434Z,37.69
2018-05-02T13:32:13.459Z,38.30
2018-05-02T13:34:41.724Z,37.64
2018-05-02T13:37:10.069Z,37.99
2018-05-02T13:39:38.333Z,37.96
2018-05-02T13:42:07.511Z,39.43
2018-05-02T13:44:35.735Z,40.04
2018-05-02T13:47:03.999Z,40.57
2018-05-02T13:49:32.277Z,40.56
2018-05-02T13:52:00.525Z,39.73
2018-05-02T13:54:28.760Z,38.79
2018-05-02T13:56:57.875Z,39.09
2018-05-02T13:59:26.900Z,38.58
2018-05-02T14:01:55.915Z,39.57
2018-05-02T14:04:24.174Z,38.31
2018-05-02T14:06:53.198Z,38.94
2018-05-02T14:09:21.461Z,38.88
2018-05-02T14:11:49.713Z,38.20
2018-05-02T14:14:17.963Z,37.45
2018-05-02T14:16:46.979Z,37.94
2018-05-02T14:19:15.299Z,35.88
2018-05-02T14:21:43.570Z,37.37
2018-05-02T14:24:11.837Z,39.06
2018-05-02T14:26:40.948Z,38.26
2018-05-02T14:29:09.211Z,37.96
2018-05-02T14:31:37.506Z,38.87
2018-05-02T14:34:06.519Z,38.59
2018-05-02T14:36:35.527Z,39.42
2018-05-02T14:39:04.577Z,38.93
2018-05-02T14:41:32.815Z,37.89
2018-05-02T14:44:01.842Z,36.53
2018-05-02T14:46:30.839Z,36.83
2018-05-02T14:48:59.856Z,37.07
2018-05-02T14:51:28.091Z,37.08
2018-05-02T14:53:56.427Z,36.72
2018-05-02T14:56:25.691Z,37.24
2018-05-02T14:58:53.921Z,36.97
2018-05-02T15:01:22.923Z,38.09
2018-05-02T15:03:51.943Z,38.38
2018-05-02T15:06:21.039Z,39.30
2018-05-02T15:08:50.810Z,39.08
2018-05-02T15:11:19.164Z,39.10
2018-05-02T15:13:48.182Z,39.78
2018-05-02T15:16:16.416Z,39.55
2018-05-02T15:18:44.752Z,39.41
2018-05-02T15:21:13.751Z,39.62
2018-05-02T15:23:42.776Z,39.77
2018-05-02T15:26:11.087Z,40.23
2018-05-02T15:28:39.373Z,41.50
2018-05-02T15:31:07.627Z,41.88
2018-05-02T15:33:36.643Z,40.49
2018-05-02T15:36:05.645Z,39.93
2018-05-02T15:38:34.738Z,39.89
2018-05-02T15:41:04.178Z,40.53
2018-05-02T15:43:33.967Z,41.54
2018-05-02T15:46:02.219Z,42.38
2018-05-02T15:48:30.470Z,42.26
2018-05-02T15:50:59.563Z,40.96
2018-05-02T15:53:28.592Z,41.69
2018-05-02T15:55:57.603Z,42.22
2018-05-02T15:58:25.931Z,42.87
2018-05-02T16:00:54.862Z,42.83
2018-05-02T16:03:23.171Z,42.75
2018-05-02T16:05:52.167Z,43.06
2018-05-02T16:08:21.201Z,42.11
2018-05-02T16:10:50.581Z,43.79
2018-05-02T16:13:18.887Z,43.10
2018-05-02T16:15:47.887Z,43.30
2018-05-02T16:18:16.910Z,44.17
2018-05-02T16:20:45.146Z,43.56
2018-05-02T16:23:13.415Z,43.08
2018-05-02T16:25:41.665Z,43.20
2018-05-02T16:28:10.694Z,43.10
2018-05-02T16:30:38.955Z,43.78
2018-05-02T16:33:08.019Z,43.77
2018-05-02T16:35:36.966Z,43.35
2018-05-02T16:38:06.073Z,44.17
2018-05-02T16:40:35.095Z,44.66
2018-05-02T16:43:04.087Z,44.17
2018-05-02T16:45:33.115Z,44.48
2018-05-02T16:48:01.348Z,44.01
2018-05-02T16:50:29.602Z,44.46
2018-05-02T16:52:57.835Z,44.42
2018-05-02T16:55:26.096Z,45.11
2018-05-02T16:57:54.338Z,44.98
2018-05-02T17:00:22.600Z,45.76
2018-05-02T17:02:50.839Z,45.47
2018-05-02T17:05:19.102Z,45.12
2018-05-02T17:07:47.347Z,45.08
2018-05-02T17:10:15.597Z,45.24
2018-05-02T17:12:44.598Z,46.23
2018-05-02T17:15:13.626Z,45.91
2018-05-02T17:17:41.854Z,46.79
2018-05-02T17:20:10.135Z,46.91
2018-05-02T17:22:38.373Z,47.08
2018-05-02T17:25:07.398Z,46.86
2018-05-02T17:27:35.659Z,46.42
2018-05-02T17:30:05.408Z,46.07
2018-05-02T17:32:34.419Z,45.79
2018-05-02T17:35:02.695Z,46.63
2018-05-02T17:37:30.925Z,46.99
2018-05-02T17:39:59.175Z,47.14
2018-05-02T17:42:27.425Z,47.79
2018-05-02T17:44:55.671Z,48.09
2018-05-02T17:47:23.939Z,48.49
2018-05-02T17:49:52.182Z,48.51
2018-05-02T17:52:20.422Z,48.00
2018-05-02T17:54:48.674Z,48.03
2018-05-02T17:57:16.908Z,48.56
2018-05-02T17:59:45.171Z,49.02
2018-05-02T18:02:13.413Z,48.73
2018-05-02T18:04:41.700Z,49.21
2018-05-02T18:07:09.943Z,49.50
2018-05-02T18:09:38.211Z,48.89
2018-05-02T18:12:07.214Z,49.72
2018-05-02T18:14:36.240Z,50.40
2018-05-02T18:17:05.287Z,51.37
2018-05-02T18:19:33.519Z,52.86
2018-05-02T18:22:02.544Z,52.78
2018-05-02T18:24:30.776Z,53.70
2018-05-02T18:26:59.039Z,54.36
2018-05-02T18:29:27.287Z,53.32
2018-05-02T18:31:55.544Z,55.01
2018-05-02T18:34:23.879Z,55.23
2018-05-02T18:36:52.906Z,56.24
2018-05-02T18:39:21.141Z,57.43
2018-05-02T18:41:49.454Z,57.53
2018-05-02T18:44:18.395Z,58.68
2018-05-02T18:46:46.652Z,59.69
2018-05-02T18:49:15.714Z,58.15
2018-05-02T18:51:43.959Z,58.78
2018-05-02T18:54:12.976Z,60.15
2018-05-02T18:56:41.233Z,58.30
2018-05-02T18:59:10.274Z,58.93
2018-05-02T19:01:38.527Z,59.56
2018-05-02T19:04:06.763Z,60.66
2018-05-02T19:06:35.028Z,58.68
2018-05-02T19:09:04.031Z,57.52
2018-05-02T19:11:33.112Z,58.76
2018-05-02T19:14:01.302Z,58.94
2018-05-02T19:16:29.559Z,58.77
2018-05-02T19:19:03.286Z,58.63
2018-05-02T19:21:31.637Z,58.52
2018-05-02T19:24:00.649Z,56.76
2018-05-02T19:26:35.253Z,57.85
2018-05-02T19:29:03.503Z,58.83
2018-05-02T19:31:37.269Z,59.19
2018-05-02T19:34:06.275Z,58.76
2018-05-02T19:36:35.299Z,59.75
2018-05-02T19:39:03.547Z,60.01
2018-05-02T19:41:37.419Z,61.23
2018-05-02T19:44:06.621Z,63.15
2018-05-02T19:46:35.646Z,61.17
2018-05-02T19:49:03.897Z,60.91
2018-05-02T19:51:38.388Z,61.52
2018-05-02T19:54:06.642Z,62.54
2018-05-02T19:56:34.899Z,62.66
2018-05-02T19:59:03.922Z,63.83
2018-05-02T20:01:38.503Z,64.92
2018-05-02T20:04:06.772Z,63.27
2018-05-02T20:06:35.007Z,64.18
2018-05-02T20:09:08.840Z,63.79
2018-05-02T20:11:43.302Z,64.39
2018-05-02T20:14:11.604Z,64.55
2018-05-02T20:16:39.887Z,65.20
2018-05-02T20:19:08.211Z,64.27
2018-05-02T20:21:36.463Z,66.15
2018-05-02T20:24:04.735Z,63.79
2018-05-02T20:26:33.843Z,62.61
2018-05-02T20:29:03.610Z,63.94
2018-05-02T20:31:31.850Z,64.46
2018-05-02T20:34:00.874Z,62.96
2018-05-02T20:36:29.198Z,64.03
2018-05-02T20:38:57.379Z,63.83
2018-05-02T20:41:26.390Z,62.43
2018-05-02T20:43:54.643Z,63.24
2018-05-02T20:46:23.659Z,63.09
2018-05-02T20:48:51.932Z,64.42
2018-05-02T20:51:21.315Z,63.57
2018-05-02T20:53:49.562Z,64.18
2018-05-02T20:56:17.802Z,64.41
2018-05-02T20:58:46.047Z,65.35
2018-05-02T21:01:14.376Z,65.47
2018-05-02T21:03:42.640Z,65.27
2018-05-02T21:06:10.901Z,65.15
2018-05-02T21:08:39.175Z,65.43
2018-05-02T21:11:08.166Z,65.57
2018-05-02T21:13:37.201Z,65.35
2018-05-02T21:16:05.435Z,64.55
2018-05-02T21:18:33.684Z,65.29
2018-05-02T21:21:01.947Z,65.20
2018-05-02T21:23:30.211Z,64.83
2018-05-02T21:25:59.235Z,65.63
2018-05-02T21:28:29.088Z,65.29
2018-05-02T21:30:57.401Z,65.52
2018-05-02T21:33:26.396Z,65.95
2018-05-02T21:35:55.478Z,64.61
2018-05-02T21:38:24.485Z,64.55
2018-05-02T21:40:52.735Z,64.24
2018-05-02T21:43:21.055Z,64.91
2018-05-02T21:45:50.052Z,64.77
2018-05-02T21:48:19.467Z,64.96
2018-05-02T21:50:48.463Z,65.44
2018-05-02T21:53:16.702Z,63.50
2018-05-02T21:55:44.954Z,64.14
2018-05-02T21:58:14.007Z,62.95
2018-05-02T22:00:42.276Z,63.18
2018-05-02T22:03:10.553Z,63.22
2018-05-02T22:05:39.580Z,62.88
2018-05-02T22:08:07.810Z,62.57
2018-05-02T22:10:36.075Z,62.92
2018-05-02T22:13:04.309Z,62.60
2018-05-02T22:15:32.636Z,63.45
2018-05-02T22:18:00.883Z,63.54
2018-05-02T22:20:29.131Z,63.84
2018-05-02T22:22:57.383Z,63.72
2018-05-02T22:25:25.637Z,63.95
2018-05-02T22:27:54.635Z,64.01
2018-05-02T22:30:22.882Z,63.96
2018-05-02T22:32:51.165Z,64.27
2018-05-02T22:35:19.559Z,64.87
2018-05-02T22:37:48.538Z,65.59
2018-05-02T22:40:17.567Z,66.02
2018-05-02T22:42:45.818Z,66.39
2018-05-02T22:45:14.075Z,65.22
2018-05-02T22:47:42.528Z,68.70
2018-05-02T22:50:11.540Z,67.75
2018-05-02T22:52:39.791Z,66.77
2018-05-02T22:55:08.108Z,67.60
2018-05-02T22:57:37.095Z,68.61
2018-05-02T23:00:05.347Z,68.09
2018-05-02T23:02:33.620Z,69.08
2018-05-02T23:05:02.595Z,68.70
2018-05-02T23:07:31.698Z,68.71
2018-05-02T23:10:00.121Z,71.27
2018-05-02T23:12:28.342Z,70.12
2018-05-02T23:14:56.599Z,71.41
2018-05-02T23:17:24.864Z,72.89
2018-05-02T23:19:53.872Z,72.33
2018-05-02T23:22:22.895Z,72.61
2018-05-02T23:24:51.179Z,73.12
2018-05-02T23:27:20.307Z,73.32
2018-05-02T23:29:48.561Z,73.32
2018-05-02T23:32:17.575Z,73.31
2018-05-02T23:34:46.576Z,73.57
2018-05-02T23:37:15.599Z,73.37
2018-05-02T23:39:43.870Z,72.77
2018-05-02T23:42:12.889Z,73.96
2018-05-02T23:44:41.123Z,74.78
2018-05-02T23:47:09.563Z,74.89
2018-05-02T23:49:38.555Z,73.80
2018-05-02T23:52:08.188Z,72.49
2018-05-02T23:54:37.597Z,73.20
2018-05-02T23:57:06.712Z,72.68
2018-05-02T23:59:35.835Z,72.57
